Raymond, Nebraska
Current Conditions -  °F | °C
As of 3:54 PM on Thursday 18 Dec 2014 (Local Time) from KLNK Reporting Station
Overcast Overcast  
Wind Chill: 32°   Ceiling: 1500
Heat Index: 32°   Visibility: 7mi
Dew Point: 27°   Wind: 3mph
Humidity: 82%   Direction: 210°SSW
Pressure: 30.2"   Gusts: NA
Location:  40.96°N, 96.78°W
Report Text: KLNK 182154Z 21003KT 7SM OVC015 00/M03 A3020 RMK AO2 SLP242 T00001028
Loading
Personal Weather Stations






























Interactive Weather Map New forecast layout! Learn more

10-Day Weather Forecast

Advertisements
Track Severe Weather on mobile